createdAt,value
2022-10-21T00:00:57.837Z,5.07
2022-10-21T00:03:28.657Z,5.04
2022-10-21T00:05:56.746Z,5.05
2022-10-21T00:08:24.751Z,5.03
2022-10-21T00:10:53.984Z,5.01
2022-10-21T00:13:22.603Z,5.02
2022-10-21T00:16:05.599Z,5.08
2022-10-21T00:18:34.720Z,4.95
2022-10-21T00:21:09.027Z,4.93
2022-10-21T00:23:36.573Z,4.94
2022-10-21T00:26:04.817Z,4.92
2022-10-21T00:28:32.992Z,4.88
2022-10-21T00:31:01.018Z,4.95
2022-10-21T00:33:28.882Z,4.95
2022-10-21T00:36:02.977Z,4.94
2022-10-21T00:38:32.024Z,4.92
2022-10-21T00:40:59.772Z,4.89
2022-10-21T00:43:28.255Z,5.02
2022-10-21T00:46:05.236Z,5.01
2022-10-21T00:48:35.966Z,4.99
2022-10-21T00:51:16.945Z,5.00
2022-10-21T00:53:47.329Z,4.97
2022-10-21T00:56:24.448Z,5.02
2022-10-21T00:58:55.266Z,5.01
2022-10-21T01:01:22.919Z,5.01
2022-10-21T01:03:51.141Z,4.98
2022-10-21T01:06:21.900Z,4.90
2022-10-21T01:08:49.910Z,4.87
2022-10-21T01:11:19.620Z,4.89
2022-10-21T01:13:49.956Z,4.88
2022-10-21T01:16:41.219Z,4.84
2022-10-21T01:19:31.790Z,4.92
2022-10-21T01:22:36.694Z,4.92
2022-10-21T01:25:16.304Z,4.93
2022-10-21T01:28:17.686Z,4.93
2022-10-21T01:31:01.313Z,4.83
2022-10-21T01:33:37.462Z,4.88
2022-10-21T01:36:39.689Z,4.96
2022-10-21T01:39:22.050Z,4.89
2022-10-21T01:41:56.658Z,4.91
2022-10-21T01:44:37.590Z,4.95
2022-10-21T01:47:32.590Z,5.03
2022-10-21T01:50:21.496Z,5.06
2022-10-21T01:52:56.284Z,4.93
2022-10-21T01:55:28.279Z,4.97
2022-10-21T01:58:16.359Z,5.01
2022-10-21T02:00:43.983Z,5.17
2022-10-21T02:03:16.646Z,4.96
2022-10-21T02:05:44.190Z,4.94
2022-10-21T02:08:14.008Z,4.88
2022-10-21T02:10:46.035Z,4.92
2022-10-21T02:13:17.874Z,4.89
2022-10-21T02:16:10.072Z,5.03
2022-10-21T02:18:37.473Z,4.96
2022-10-21T02:21:11.426Z,4.95
2022-10-21T02:23:44.768Z,4.96
2022-10-21T02:26:12.342Z,4.90
2022-10-21T02:31:15.817Z,4.91
2022-10-21T02:33:52.315Z,4.92
2022-10-21T02:36:48.578Z,4.97
2022-10-21T02:39:21.197Z,5.10
2022-10-21T02:41:50.867Z,4.84
2022-10-21T02:44:18.459Z,4.82
2022-10-21T02:46:47.491Z,4.78
2022-10-21T02:49:14.899Z,4.68
2022-10-21T02:51:43.058Z,4.63
2022-10-21T02:54:10.497Z,4.63
2022-10-21T02:56:37.896Z,4.68
2022-10-21T02:59:05.390Z,4.70
2022-10-21T03:01:35.030Z,4.69
2022-10-21T03:04:02.471Z,4.76
2022-10-21T03:06:29.922Z,4.75
2022-10-21T03:08:59.958Z,4.73
2022-10-21T03:11:27.593Z,4.72
2022-10-21T03:13:54.993Z,4.69
2022-10-21T03:16:22.463Z,4.71
2022-10-21T03:18:49.863Z,4.68
2022-10-21T03:21:17.318Z,4.66
2022-10-21T03:23:44.777Z,4.69
2022-10-21T03:26:12.410Z,4.74
2022-10-21T03:28:39.841Z,4.77
2022-10-21T03:31:07.379Z,4.81
2022-10-21T03:33:34.761Z,4.79
2022-10-21T03:36:02.321Z,4.79
2022-10-21T03:38:29.839Z,4.70
2022-10-21T03:40:57.341Z,4.73
2022-10-21T03:43:24.778Z,4.72
2022-10-21T03:45:52.284Z,4.71
2022-10-21T03:48:19.682Z,4.68
2022-10-21T03:50:47.622Z,4.70
2022-10-21T03:53:30.883Z,4.61
2022-10-21T03:56:02.378Z,4.63
2022-10-21T03:58:29.863Z,4.68
2022-10-21T04:00:57.332Z,4.67
2022-10-21T04:03:24.779Z,4.66
2022-10-21T04:05:52.455Z,4.70
2022-10-21T04:08:19.957Z,4.73
2022-10-21T04:10:50.250Z,4.72
2022-10-21T04:13:17.787Z,4.70
2022-10-21T04:15:45.863Z,4.69
2022-10-21T04:18:13.295Z,4.68
2022-10-21T04:20:40.737Z,4.68
2022-10-21T04:23:08.259Z,4.77
2022-10-21T04:25:35.673Z,4.74
2022-10-21T04:28:03.210Z,4.67
2022-10-21T04:30:30.608Z,4.73
2022-10-21T04:32:58.140Z,4.64
2022-10-21T04:35:25.601Z,4.64
2022-10-21T04:37:55.454Z,4.68
2022-10-21T04:40:23.114Z,4.73
2022-10-21T04:42:53.539Z,4.79
2022-10-21T04:45:26.058Z,4.73
2022-10-21T04:47:53.623Z,4.81
2022-10-21T04:50:23.417Z,4.79
2022-10-21T04:52:54.956Z,4.74
2022-10-21T04:55:22.570Z,4.72
2022-10-21T04:57:50.072Z,4.77
2022-10-21T05:00:17.573Z,4.83
2022-10-21T05:02:45.032Z,4.86
2022-10-21T05:05:12.451Z,4.89
2022-10-21T05:07:40.091Z,4.90
2022-10-21T05:10:07.865Z,4.97
2022-10-21T05:15:08.357Z,5.05
2022-10-21T05:17:37.033Z,5.09
2022-10-21T05:20:05.271Z,5.10
2022-10-21T05:22:33.262Z,5.12
2022-10-21T05:25:00.818Z,5.13
2022-10-21T05:27:28.629Z,5.12
2022-10-21T05:29:58.503Z,5.13
2022-10-21T05:32:27.398Z,5.12
2022-10-21T05:34:55.100Z,5.14
2022-10-21T05:37:22.675Z,5.16
2022-10-21T05:39:50.187Z,5.16
2022-10-21T05:42:17.643Z,5.14
2022-10-21T05:44:45.169Z,5.17
2022-10-21T05:47:12.606Z,5.29
2022-10-21T05:49:40.061Z,5.31
2022-10-21T05:52:07.562Z,5.37
2022-10-21T05:54:35.046Z,5.41
2022-10-21T05:57:02.647Z,5.46
2022-10-21T05:59:30.105Z,5.47
2022-10-21T06:01:57.651Z,5.48
2022-10-21T06:04:25.259Z,5.46
2022-10-21T06:06:52.778Z,5.53
2022-10-21T06:09:22.975Z,5.63
2022-10-21T06:11:50.654Z,5.68
2022-10-21T06:14:19.858Z,5.67
2022-10-21T06:16:47.354Z,5.73
2022-10-21T06:19:17.581Z,5.75
2022-10-21T06:21:45.061Z,5.76
2022-10-21T06:24:12.640Z,5.85
2022-10-21T06:26:40.073Z,5.88
2022-10-21T06:29:10.267Z,5.92
2022-10-21T06:31:37.864Z,5.85
2022-10-21T06:34:07.573Z,5.90
2022-10-21T06:36:35.149Z,5.92
2022-10-21T06:39:06.327Z,5.93
2022-10-21T06:41:34.419Z,5.99
2022-10-21T06:44:02.208Z,6.14
2022-10-21T06:46:29.701Z,6.31
2022-10-21T06:48:57.345Z,6.37
2022-10-21T06:51:25.064Z,6.48
2022-10-21T06:54:00.236Z,6.59
2022-10-21T06:56:28.184Z,6.75
2022-10-21T06:58:58.081Z,6.86
2022-10-21T07:01:48.008Z,6.94
2022-10-21T07:04:20.845Z,6.99
2022-10-21T07:06:49.227Z,6.99
2022-10-21T07:09:17.310Z,6.97
2022-10-21T07:11:50.306Z,7.03
2022-10-21T07:14:17.698Z,7.09
2022-10-21T07:16:45.471Z,7.14
2022-10-21T07:19:12.954Z,7.19
2022-10-21T07:21:40.550Z,7.18
2022-10-21T07:24:08.234Z,7.16
2022-10-21T07:26:38.522Z,7.23
2022-10-21T07:29:06.309Z,7.29
2022-10-21T07:31:36.168Z,7.38
2022-10-21T07:36:43.958Z,7.57
2022-10-21T07:39:18.164Z,7.63
2022-10-21T07:41:49.372Z,7.66
2022-10-21T07:44:20.731Z,7.70
2022-10-21T07:46:49.562Z,7.85
2022-10-21T07:49:20.916Z,7.95
2022-10-21T07:51:50.542Z,7.99
2022-10-21T07:54:19.118Z,8.07
2022-10-21T07:56:50.337Z,8.03
2022-10-21T07:59:21.874Z,7.97
2022-10-21T08:04:25.106Z,7.92
2022-10-21T08:06:52.658Z,7.84
2022-10-21T08:09:20.213Z,7.84
2022-10-21T08:11:48.057Z,7.78
2022-10-21T08:14:15.842Z,7.75
2022-10-21T08:16:43.319Z,7.74
2022-10-21T08:19:18.565Z,7.78
2022-10-21T08:21:48.313Z,7.73
2022-10-21T08:24:16.248Z,7.68
2022-10-21T08:26:43.673Z,7.75
2022-10-21T08:29:11.087Z,7.72
2022-10-21T08:31:39.348Z,7.75
2022-10-21T08:34:06.925Z,7.78
2022-10-21T10:39:39.126Z,9.46
2022-10-21T10:42:26.157Z,9.38
2022-10-21T10:45:27.319Z,9.48
2022-10-21T10:47:57.847Z,9.47
2022-10-21T10:50:43.463Z,9.66
2022-10-21T10:53:21.439Z,9.66
2022-10-21T10:55:57.250Z,9.75
2022-10-21T10:58:28.937Z,9.92
2022-10-21T11:01:01.150Z,9.98
2022-10-21T11:03:46.429Z,10.23
2022-10-21T11:06:17.496Z,10.08
2022-10-21T11:08:53.197Z,10.12
2022-10-21T11:11:28.866Z,10.12
2022-10-21T11:13:57.608Z,10.06
2022-10-21T11:17:07.853Z,10.07
2022-10-21T11:19:48.960Z,9.92
2022-10-21T11:22:36.393Z,9.74
2022-10-21T11:25:22.396Z,9.73
2022-10-21T11:27:49.854Z,9.54
2022-10-21T11:30:22.801Z,9.47
2022-10-21T11:33:17.675Z,9.47
2022-10-21T11:36:12.305Z,9.47
2022-10-21T11:38:46.152Z,9.27
2022-10-21T11:41:31.421Z,9.25
2022-10-21T11:44:29.362Z,9.19
2022-10-21T11:47:38.355Z,9.16
2022-10-21T11:53:18.380Z,9.11
2022-10-21T11:56:00.666Z,9.15
2022-10-21T11:58:48.687Z,9.15
2022-10-21T12:01:24.222Z,9.03
2022-10-21T12:04:14.774Z,8.99
2022-10-21T12:07:02.509Z,8.94
2022-10-21T12:10:27.494Z,9.00
2022-10-21T12:13:02.916Z,8.81
2022-10-21T12:15:41.421Z,8.74
2022-10-21T12:18:15.856Z,8.67
2022-10-21T12:20:47.829Z,8.52
2022-10-21T12:23:19.435Z,8.51
2022-10-21T12:26:05.321Z,8.46
2022-10-21T12:28:41.172Z,8.37
2022-10-21T12:31:23.836Z,8.43
2022-10-21T12:33:51.998Z,8.29
2022-10-21T12:36:25.880Z,8.41
2022-10-21T12:38:55.770Z,8.40
2022-10-21T12:41:35.216Z,8.42
2022-10-21T12:44:05.347Z,8.37
2022-10-21T12:46:40.109Z,8.38
2022-10-21T12:49:10.866Z,8.37
2022-10-21T12:51:39.457Z,8.35
2022-10-21T12:54:20.369Z,8.30
2022-10-21T12:56:50.573Z,8.29
2022-10-21T12:59:42.322Z,8.32
2022-10-21T13:02:24.791Z,8.23
2022-10-21T13:04:55.196Z,8.18
2022-10-21T13:07:33.308Z,8.11
2022-10-21T13:10:00.803Z,8.10
2022-10-21T13:12:30.962Z,8.09
2022-10-21T13:15:23.095Z,8.15
2022-10-21T13:17:54.725Z,8.06
2022-10-21T13:20:22.293Z,8.05
2022-10-21T13:23:03.271Z,8.03
2022-10-21T13:25:36.312Z,8.04
2022-10-21T13:28:15.044Z,8.05
2022-10-21T13:30:48.557Z,7.99
2022-10-21T13:33:52.121Z,8.03
2022-10-21T13:39:09.144Z,7.88
2022-10-21T13:41:36.912Z,7.85
2022-10-21T13:44:07.371Z,7.73
2022-10-21T13:46:39.147Z,7.77
2022-10-21T13:49:33.552Z,7.85
2022-10-21T13:52:01.110Z,7.72
2022-10-21T13:54:35.665Z,7.72
2022-10-21T13:57:09.210Z,7.68
2022-10-21T13:59:37.136Z,7.61
2022-10-21T14:02:05.374Z,7.61
2022-10-21T14:04:39.783Z,7.59
2022-10-21T14:07:16.593Z,7.61
2022-10-21T14:09:55.449Z,7.64
2022-10-21T14:12:33.981Z,7.63
2022-10-21T14:15:36.123Z,7.70
2022-10-21T14:18:05.331Z,7.60
2022-10-21T14:20:38.270Z,7.61
2022-10-21T14:23:08.674Z,7.61
2022-10-21T14:25:36.321Z,7.62
2022-10-21T14:28:06.634Z,7.59
2022-10-21T14:30:37.233Z,7.60
2022-10-21T14:33:08.562Z,7.60
2022-10-21T14:35:36.227Z,7.51
2022-10-21T14:38:06.893Z,7.46
2022-10-21T14:40:42.109Z,7.53
2022-10-21T14:43:12.342Z,7.62
2022-10-21T14:45:46.623Z,7.64
2022-10-21T14:48:30.737Z,7.68
2022-10-21T14:51:01.369Z,7.57
2022-10-21T14:53:33.440Z,7.66
2022-10-21T14:56:03.515Z,7.61
2022-10-21T14:58:36.921Z,7.69
2022-10-21T15:01:12.392Z,7.71
2022-10-21T15:03:47.310Z,7.60
2022-10-21T15:06:18.490Z,7.65
2022-10-21T15:08:59.216Z,7.76
2022-10-21T15:11:29.897Z,7.72
2022-10-21T15:14:21.982Z,7.76
2022-10-21T15:16:58.221Z,7.68
2022-10-21T15:19:40.172Z,7.68
2022-10-21T15:22:18.707Z,7.71
2022-10-21T15:24:49.185Z,7.64
2022-10-21T15:27:28.534Z,7.69
2022-10-21T15:29:56.869Z,7.69
2022-10-21T15:32:30.446Z,7.71
2022-10-21T15:34:58.957Z,7.72
2022-10-21T15:37:26.604Z,7.65
2022-10-21T15:39:54.082Z,7.73
2022-10-21T15:42:21.716Z,7.69
2022-10-21T15:44:52.002Z,7.75
2022-10-21T15:47:24.190Z,7.73
2022-10-21T15:49:51.805Z,7.73
2022-10-21T15:52:19.411Z,7.73
2022-10-21T15:54:47.059Z,7.68
2022-10-21T15:57:22.127Z,7.78
2022-10-21T15:59:52.109Z,7.69
2022-10-21T16:02:19.753Z,7.76
2022-10-21T16:04:47.291Z,7.65
2022-10-21T16:07:22.338Z,7.69
2022-10-21T16:09:50.108Z,7.64
2022-10-21T16:12:20.852Z,7.59
2022-10-21T16:14:48.479Z,7.53
2022-10-21T16:17:16.112Z,7.59
2022-10-21T16:19:43.821Z,7.54
2022-10-21T16:22:14.589Z,7.43
2022-10-21T16:24:42.444Z,7.46
2022-10-21T16:27:12.763Z,7.50
2022-10-21T16:29:40.686Z,7.50
2022-10-21T16:32:13.673Z,7.49
2022-10-21T16:34:43.453Z,7.38
2022-10-21T16:37:24.029Z,7.31
2022-10-21T16:39:51.930Z,7.18
2022-10-21T16:42:21.929Z,7.17
2022-10-21T16:44:50.705Z,7.15
2022-10-21T16:47:20.784Z,7.16
2022-10-21T16:49:53.196Z,7.16
2022-10-21T16:52:21.838Z,7.16
2022-10-21T16:54:50.574Z,7.19
2022-10-21T16:57:18.325Z,7.18
2022-10-21T16:59:46.014Z,7.18
2022-10-21T17:02:20.184Z,7.21
2022-10-21T17:04:50.107Z,7.14
2022-10-21T17:07:20.039Z,7.11
2022-10-21T17:09:50.245Z,7.15
2022-10-21T17:12:17.751Z,7.18
2022-10-21T17:14:45.290Z,7.17
2022-10-21T17:17:15.142Z,7.23
2022-10-21T17:19:42.703Z,7.22
2022-10-21T17:22:16.987Z,7.19
2022-10-21T17:24:46.118Z,7.15
2022-10-21T17:27:18.726Z,7.21
2022-10-21T17:29:47.359Z,7.15
2022-10-21T17:32:14.967Z,7.16
2022-10-21T17:34:42.656Z,7.12
2022-10-21T17:37:12.012Z,7.10
2022-10-21T17:39:49.840Z,7.08
2022-10-21T17:42:17.483Z,7.02
2022-10-21T17:44:47.394Z,7.04
2022-10-21T17:47:15.750Z,7.03
2022-10-21T17:49:45.589Z,7.03
2022-10-21T17:52:13.166Z,7.03
2022-10-21T17:54:40.633Z,7.03
2022-10-21T17:57:08.254Z,7.04
2022-10-21T17:59:38.199Z,7.03
2022-10-21T18:02:09.087Z,7.02
2022-10-21T18:04:37.487Z,7.04
2022-10-21T18:07:08.707Z,7.04
2022-10-21T18:09:37.572Z,7.00
2022-10-21T18:12:09.533Z,6.97
2022-10-21T18:14:40.223Z,6.95
2022-10-21T18:17:08.628Z,6.96
2022-10-21T18:19:38.596Z,6.92
2022-10-21T18:22:06.259Z,7.00
2022-10-21T18:24:36.525Z,7.02
2022-10-21T18:27:05.420Z,7.01
2022-10-21T18:29:34.165Z,7.06
2022-10-21T18:32:13.828Z,7.04
2022-10-21T18:34:51.676Z,7.03
2022-10-21T18:37:20.006Z,7.03
2022-10-21T18:39:47.495Z,7.06
2022-10-21T18:42:15.114Z,7.03
2022-10-21T18:44:45.159Z,7.03
2022-10-21T18:47:12.743Z,7.10
2022-10-21T18:49:40.720Z,7.17
2022-10-21T18:52:08.429Z,7.14
2022-10-21T18:54:35.892Z,7.21
2022-10-21T18:57:05.743Z,7.18
2022-10-21T18:59:33.246Z,7.22
2022-10-21T19:02:00.819Z,7.20
2022-10-21T19:04:28.318Z,7.15
2022-10-21T19:06:58.073Z,7.12
2022-10-21T19:09:26.722Z,7.12
2022-10-21T19:11:54.310Z,7.17
2022-10-21T19:14:21.910Z,7.16
2022-10-21T19:16:49.399Z,7.17
2022-10-21T19:19:17.468Z,7.16
2022-10-21T19:21:45.049Z,7.15
2022-10-21T19:24:12.919Z,7.15
2022-10-21T19:26:42.761Z,7.17
2022-10-21T19:29:16.726Z,7.12
2022-10-21T19:31:50.898Z,7.12
2022-10-21T19:34:23.718Z,7.20
2022-10-21T19:36:51.266Z,7.20
2022-10-21T19:39:19.549Z,7.21
2022-10-21T19:41:47.462Z,7.20
2022-10-21T19:44:15.191Z,7.17
2022-10-21T19:46:43.047Z,7.13
2022-10-21T19:49:14.186Z,7.11
2022-10-21T19:51:41.801Z,7.17
2022-10-21T19:54:13.948Z,7.18
2022-10-21T19:56:44.116Z,7.19
2022-10-21T19:59:14.713Z,7.15
2022-10-21T20:01:42.293Z,7.14
2022-10-21T20:04:12.855Z,7.09
2022-10-21T20:06:41.034Z,7.13
2022-10-21T20:09:12.633Z,7.12
2022-10-21T20:11:40.604Z,7.14
2022-10-21T20:14:08.292Z,7.11
2022-10-21T20:16:38.828Z,7.03
2022-10-21T20:19:10.311Z,7.04
2022-10-21T20:21:41.873Z,6.91
2022-10-21T20:24:15.422Z,6.89
2022-10-21T20:26:44.642Z,6.87
2022-10-21T20:29:13.326Z,6.86
2022-10-21T20:31:40.845Z,6.86
2022-10-21T20:34:08.364Z,6.83
2022-10-21T20:36:38.612Z,6.84
2022-10-21T20:39:06.181Z,6.83
2022-10-21T20:41:37.339Z,6.83
2022-10-21T20:44:09.707Z,6.81
2022-10-21T20:46:37.568Z,6.80
2022-10-21T20:49:06.914Z,6.75
2022-10-21T20:51:36.248Z,6.75
2022-10-21T20:54:07.273Z,6.77
2022-10-21T20:56:37.143Z,6.78
2022-10-21T20:59:06.131Z,6.81
2022-10-21T21:01:36.323Z,6.84
2022-10-21T21:04:09.601Z,6.85
2022-10-21T21:06:39.850Z,6.77
2022-10-21T21:09:29.371Z,6.78
2022-10-21T21:14:25.027Z,6.77
2022-10-21T21:16:52.472Z,6.82
2022-10-21T21:19:27.484Z,6.80
2022-10-21T21:21:55.010Z,6.87
2022-10-21T21:24:22.507Z,6.87
2022-10-21T21:26:52.255Z,6.88
2022-10-21T21:29:19.784Z,6.85
2022-10-21T21:31:47.220Z,6.89
2022-10-21T21:34:14.922Z,6.85
2022-10-21T21:36:44.609Z,6.91
2022-10-21T21:41:45.761Z,6.87
2022-10-21T21:44:13.201Z,6.84
2022-10-21T21:46:40.777Z,6.90
2022-10-21T21:49:08.286Z,6.88
2022-10-21T21:51:36.996Z,6.88
2022-10-21T21:54:08.409Z,6.82
2022-10-21T21:56:38.775Z,6.86
2022-10-21T21:59:06.405Z,6.88
2022-10-21T22:01:34.124Z,6.87
2022-10-21T22:04:02.138Z,6.84
2022-10-21T22:06:36.565Z,6.86
2022-10-21T22:09:10.215Z,6.90
2022-10-21T22:11:38.643Z,6.88
2022-10-21T22:14:06.209Z,6.88
2022-10-21T22:16:33.685Z,6.94
2022-10-21T22:19:01.721Z,6.92
2022-10-21T22:21:31.677Z,6.99
2022-10-21T22:24:01.493Z,6.94
2022-10-21T22:26:30.084Z,7.02
2022-10-21T22:28:57.708Z,7.02
2022-10-21T22:31:29.295Z,6.99
2022-10-21T22:34:02.139Z,7.05
2022-10-21T22:36:30.238Z,7.00
2022-10-21T22:38:58.173Z,7.04
2022-10-21T22:41:28.453Z,7.00
2022-10-21T22:43:56.609Z,7.06
2022-10-21T22:46:33.903Z,7.05
2022-10-21T22:49:10.540Z,7.06
2022-10-21T22:51:38.109Z,7.03
2022-10-21T22:54:11.549Z,7.05
2022-10-21T22:56:46.975Z,7.05
2022-10-21T22:59:17.059Z,7.09
2022-10-21T23:01:47.106Z,7.10
2022-10-21T23:04:14.622Z,7.13
2022-10-21T23:06:44.595Z,7.14
2022-10-21T23:09:12.141Z,7.13
2022-10-21T23:11:39.757Z,7.12
2022-10-21T23:14:09.525Z,7.12
2022-10-21T23:16:37.556Z,7.16
2022-10-21T23:19:07.404Z,7.16
2022-10-21T23:21:35.989Z,7.16
2022-10-21T23:24:06.873Z,7.13
2022-10-21T23:26:36.845Z,7.14
2022-10-21T23:29:07.081Z,7.13
2022-10-21T23:31:34.598Z,7.16
2022-10-21T23:34:02.956Z,7.10
2022-10-21T23:36:32.697Z,7.15
2022-10-21T23:39:06.532Z,7.14
2022-10-21T23:41:34.142Z,7.15
2022-10-21T23:44:01.619Z,7.11
2022-10-21T23:46:29.263Z,7.11
2022-10-21T23:48:56.702Z,7.05
2022-10-21T23:51:34.448Z,7.08
2022-10-21T23:54:08.999Z,7.04
2022-10-21T23:56:36.491Z,7.02
2022-10-21T23:59:11.610Z,7.06
